Аэропорт: Черновцы. Черновцы

ICAO: UKLN

METAR:
Информация по данной станции не доступна
METAR:
2019-12-12 05:10:00
TAF UKLN 120510Z 1206/1215 11005MPS 2500 BR BKN006 TX06/1213Z TN03/1206Z TEMPO 1206/1209 1000 BR BKN003